sensor_id;sensor_type;location;lat;lon;timestamp;pressure;altitude;pressure_sealevel;temperature
71081;BMP180;58740;50.672;18.690;2022-11-23T00:01:36;97891.60;;;3.80
71081;BMP180;58740;50.672;18.690;2022-11-23T00:04:11;97887.00;;;3.80
71081;BMP180;58740;50.672;18.690;2022-11-23T00:06:40;97888.80;;;3.80
71081;BMP180;58740;50.672;18.690;2022-11-23T00:09:10;97889.80;;;3.78
71081;BMP180;58740;50.672;18.690;2022-11-23T00:11:38;97886.20;;;3.80
71081;BMP180;58740;50.672;18.690;2022-11-23T00:14:05;97882.60;;;3.80
71081;BMP180;58740;50.672;18.690;2022-11-23T00:16:33;97880.80;;;3.80
71081;BMP180;58740;50.672;18.690;2022-11-23T00:19:02;97890.00;;;3.80
71081;BMP180;58740;50.672;18.690;2022-11-23T00:21:31;97891.80;;;3.80
71081;BMP180;58740;50.672;18.690;2022-11-23T00:24:00;97889.60;;;3.70
71081;BMP180;58740;50.672;18.690;2022-11-23T00:26:28;97887.40;;;3.70
71081;BMP180;58740;50.672;18.690;2022-11-23T00:28:56;97891.20;;;3.60
71081;BMP180;58740;50.672;18.690;2022-11-23T00:31:23;97889.00;;;3.60
71081;BMP180;58740;50.672;18.690;2022-11-23T00:33:54;97886.60;;;3.60
71081;BMP180;58740;50.672;18.690;2022-11-23T00:36:25;97882.60;;;3.60
71081;BMP180;58740;50.672;18.690;2022-11-23T00:38:54;97885.60;;;3.60
71081;BMP180;58740;50.672;18.690;2022-11-23T00:41:26;97888.60;;;3.60
71081;BMP180;58740;50.672;18.690;2022-11-23T00:43:55;97885.60;;;3.60
71081;BMP180;58740;50.672;18.690;2022-11-23T00:46:26;97892.00;;;3.60
71081;BMP180;58740;50.672;18.690;2022-11-23T00:48:56;97888.00;;;3.60
71081;BMP180;58740;50.672;18.690;2022-11-23T00:51:31;97886.60;;;3.60
71081;BMP180;58740;50.672;18.690;2022-11-23T00:54:01;97886.60;;;3.60
71081;BMP180;58740;50.672;18.690;2022-11-23T00:56:30;97884.40;;;3.60
71081;BMP180;58740;50.672;18.690;2022-11-23T00:59:01;97875.20;;;3.60
71081;BMP180;58740;50.672;18.690;2022-11-23T01:01:32;97878.80;;;3.60
71081;BMP180;58740;50.672;18.690;2022-11-23T01:04:05;97875.00;;;3.64
71081;BMP180;58740;50.672;18.690;2022-11-23T01:06:38;97875.60;;;3.64
71081;BMP180;58740;50.672;18.690;2022-11-23T01:09:12;97873.80;;;3.60
71081;BMP180;58740;50.672;18.690;2022-11-23T01:11:40;97880.00;;;3.60
71081;BMP180;58740;50.672;18.690;2022-11-23T01:14:09;97882.80;;;3.60
71081;BMP180;58740;50.672;18.690;2022-11-23T01:16:39;97886.40;;;3.50
71081;BMP180;58740;50.672;18.690;2022-11-23T01:19:12;97883.20;;;3.50
71081;BMP180;58740;50.672;18.690;2022-11-23T01:21:40;97884.40;;;3.50
71081;BMP180;58740;50.672;18.690;2022-11-23T01:24:18;97883.40;;;3.50
71081;BMP180;58740;50.672;18.690;2022-11-23T01:26:51;97885.20;;;3.50
71081;BMP180;58740;50.672;18.690;2022-11-23T01:29:21;97885.00;;;3.50
71081;BMP180;58740;50.672;18.690;2022-11-23T01:31:49;97889.60;;;3.50
71081;BMP180;58740;50.672;18.690;2022-11-23T01:34:17;97892.20;;;3.46
71081;BMP180;58740;50.672;18.690;2022-11-23T01:36:45;97888.20;;;3.40
71081;BMP180;58740;50.672;18.690;2022-11-23T01:39:13;97892.40;;;3.42
71081;BMP180;58740;50.672;18.690;2022-11-23T01:41:43;97893.60;;;3.40
71081;BMP180;58740;50.672;18.690;2022-11-23T01:44:32;97895.60;;;3.46
71081;BMP180;58740;50.672;18.690;2022-11-23T01:47:07;97882.20;;;3.50
71081;BMP180;58740;50.672;18.690;2022-11-23T01:49:44;97883.20;;;3.50
71081;BMP180;58740;50.672;18.690;2022-11-23T01:52:20;97889.60;;;3.40
71081;BMP180;58740;50.672;18.690;2022-11-23T01:54:55;97886.40;;;3.40
71081;BMP180;58740;50.672;18.690;2022-11-23T01:57:35;97887.00;;;3.32
71081;BMP180;58740;50.672;18.690;2022-11-23T02:00:04;97891.60;;;3.30
71081;BMP180;58740;50.672;18.690;2022-11-23T02:02:34;97891.80;;;3.30
71081;BMP180;58740;50.672;18.690;2022-11-23T02:05:04;97888.60;;;3.20
71081;BMP180;58740;50.672;18.690;2022-11-23T02:07:33;97899.80;;;3.20
71081;BMP180;58740;50.672;18.690;2022-11-23T02:10:02;97897.60;;;3.20
71081;BMP180;58740;50.672;18.690;2022-11-23T02:12:30;97905.20;;;3.20
71081;BMP180;58740;50.672;18.690;2022-11-23T02:14:57;97908.00;;;3.20
71081;BMP180;58740;50.672;18.690;2022-11-23T02:17:25;97908.40;;;3.12
71081;BMP180;58740;50.672;18.690;2022-11-23T02:23:07;97899.40;;;3.10
71081;BMP180;58740;50.672;18.690;2022-11-23T02:28:43;97914.00;;;3.00
71081;BMP180;58740;50.672;18.690;2022-11-23T02:31:11;97909.20;;;3.00
71081;BMP180;58740;50.672;18.690;2022-11-23T02:33:40;97915.80;;;3.00
71081;BMP180;58740;50.672;18.690;2022-11-23T02:36:41;97911.60;;;3.00
71081;BMP180;58740;50.672;18.690;2022-11-23T02:39:35;97905.60;;;3.10
71081;BMP180;58740;50.672;18.690;2022-11-23T02:42:05;97911.20;;;3.10
71081;BMP180;58740;50.672;18.690;2022-11-23T02:44:43;97903.20;;;3.04
71081;BMP180;58740;50.672;18.690;2022-11-23T02:47:13;97905.20;;;3.00
71081;BMP180;58740;50.672;18.690;2022-11-23T02:49:41;97900.60;;;3.00
71081;BMP180;58740;50.672;18.690;2022-11-23T02:52:13;97902.60;;;2.96
71081;BMP180;58740;50.672;18.690;2022-11-23T02:54:41;97905.00;;;2.90
71081;BMP180;58740;50.672;18.690;2022-11-23T02:57:09;97902.80;;;2.90
71081;BMP180;58740;50.672;18.690;2022-11-23T02:59:37;97903.20;;;2.90
71081;BMP180;58740;50.672;18.690;2022-11-23T03:02:05;97900.00;;;2.90
71081;BMP180;58740;50.672;18.690;2022-11-23T03:04:33;97900.60;;;2.90
71081;BMP180;58740;50.672;18.690;2022-11-23T03:07:01;97895.40;;;2.90
71081;BMP180;58740;50.672;18.690;2022-11-23T03:09:28;97898.40;;;2.90
71081;BMP180;58740;50.672;18.690;2022-11-23T03:11:57;97896.20;;;2.90
71081;BMP180;58740;50.672;18.690;2022-11-23T03:14:24;97902.20;;;2.90
71081;BMP180;58740;50.672;18.690;2022-11-23T03:16:52;97901.00;;;2.90
71081;BMP180;58740;50.672;18.690;2022-11-23T03:19:20;97905.40;;;2.90
71081;BMP180;58740;50.672;18.690;2022-11-23T03:21:47;97907.60;;;2.90
71081;BMP180;58740;50.672;18.690;2022-11-23T03:24:15;97910.20;;;2.92
71081;BMP180;58740;50.672;18.690;2022-11-23T03:26:43;97906.60;;;2.90
71081;BMP180;58740;50.672;18.690;2022-11-23T03:29:11;97906.40;;;2.90
71081;BMP180;58740;50.672;18.690;2022-11-23T03:31:39;97900.40;;;2.90
71081;BMP180;58740;50.672;18.690;2022-11-23T03:34:08;97899.00;;;2.90
71081;BMP180;58740;50.672;18.690;2022-11-23T03:36:36;97892.20;;;2.90
71081;BMP180;58740;50.672;18.690;2022-11-23T03:39:04;97898.40;;;2.90
71081;BMP180;58740;50.672;18.690;2022-11-23T03:41:32;97900.80;;;2.80
71081;BMP180;58740;50.672;18.690;2022-11-23T03:44:00;97898.40;;;2.84
71081;BMP180;58740;50.672;18.690;2022-11-23T03:46:29;97898.80;;;2.84
71081;BMP180;58740;50.672;18.690;2022-11-23T03:48:57;97890.40;;;2.90
71081;BMP180;58740;50.672;18.690;2022-11-23T03:51:24;97894.40;;;2.90
71081;BMP180;58740;50.672;18.690;2022-11-23T03:53:52;97895.00;;;2.90
71081;BMP180;58740;50.672;18.690;2022-11-23T03:56:20;97893.60;;;2.90
71081;BMP180;58740;50.672;18.690;2022-11-23T03:58:47;97886.80;;;2.90
71081;BMP180;58740;50.672;18.690;2022-11-23T04:01:15;97888.60;;;2.90
71081;BMP180;58740;50.672;18.690;2022-11-23T04:03:44;97884.40;;;2.90
71081;BMP180;58740;50.672;18.690;2022-11-23T04:06:11;97885.00;;;2.90
71081;BMP180;58740;50.672;18.690;2022-11-23T04:08:39;97885.00;;;2.90
71081;BMP180;58740;50.672;18.690;2022-11-23T04:11:07;97877.60;;;2.90
71081;BMP180;58740;50.672;18.690;2022-11-23T04:13:35;97884.80;;;2.90
71081;BMP180;58740;50.672;18.690;2022-11-23T04:16:05;97889.60;;;2.90
71081;BMP180;58740;50.672;18.690;2022-11-23T04:18:33;97886.80;;;2.90
71081;BMP180;58740;50.672;18.690;2022-11-23T04:21:01;97880.20;;;2.90
71081;BMP180;58740;50.672;18.690;2022-11-23T04:23:29;97877.60;;;2.80
71081;BMP180;58740;50.672;18.690;2022-11-23T04:25:57;97880.80;;;2.80
71081;BMP180;58740;50.672;18.690;2022-11-23T04:28:24;97878.60;;;2.78
71081;BMP180;58740;50.672;18.690;2022-11-23T04:30:53;97879.80;;;2.70
71081;BMP180;58740;50.672;18.690;2022-11-23T04:33:20;97877.00;;;2.70
71081;BMP180;58740;50.672;18.690;2022-11-23T04:35:48;97878.00;;;2.68
71081;BMP180;58740;50.672;18.690;2022-11-23T04:38:16;97872.20;;;2.60
71081;BMP180;58740;50.672;18.690;2022-11-23T04:40:46;97874.60;;;2.60
71081;BMP180;58740;50.672;18.690;2022-11-23T04:43:15;97877.40;;;2.60
71081;BMP180;58740;50.672;18.690;2022-11-23T04:45:43;97877.40;;;2.64
71081;BMP180;58740;50.672;18.690;2022-11-23T04:48:11;97877.00;;;2.70
71081;BMP180;58740;50.672;18.690;2022-11-23T04:50:39;97874.80;;;2.70
71081;BMP180;58740;50.672;18.690;2022-11-23T04:53:13;97878.60;;;2.70
71081;BMP180;58740;50.672;18.690;2022-11-23T04:55:41;97875.80;;;2.70
71081;BMP180;58740;50.672;18.690;2022-11-23T04:58:08;97874.00;;;2.70
71081;BMP180;58740;50.672;18.690;2022-11-23T05:00:36;97877.60;;;2.72
71081;BMP180;58740;50.672;18.690;2022-11-23T05:03:04;97881.00;;;2.80
71081;BMP180;58740;50.672;18.690;2022-11-23T05:05:31;97878.60;;;2.80
71081;BMP180;58740;50.672;18.690;2022-11-23T05:07:59;97880.20;;;2.80
71081;BMP180;58740;50.672;18.690;2022-11-23T05:10:27;97876.00;;;2.80
71081;BMP180;58740;50.672;18.690;2022-11-23T05:12:54;97872.20;;;2.80
71081;BMP180;58740;50.672;18.690;2022-11-23T05:15:22;97875.60;;;2.74
71081;BMP180;58740;50.672;18.690;2022-11-23T05:17:50;97878.80;;;2.70
71081;BMP180;58740;50.672;18.690;2022-11-23T05:20:25;97879.20;;;2.70
71081;BMP180;58740;50.672;18.690;2022-11-23T05:22:53;97891.80;;;2.70
71081;BMP180;58740;50.672;18.690;2022-11-23T05:25:21;97887.60;;;2.70
71081;BMP180;58740;50.672;18.690;2022-11-23T05:27:49;97897.60;;;2.70
71081;BMP180;58740;50.672;18.690;2022-11-23T05:30:17;97897.00;;;2.70
71081;BMP180;58740;50.672;18.690;2022-11-23T05:32:45;97896.20;;;2.70
71081;BMP180;58740;50.672;18.690;2022-11-23T05:35:13;97897.40;;;2.70
71081;BMP180;58740;50.672;18.690;2022-11-23T05:37:41;97906.20;;;2.70
71081;BMP180;58740;50.672;18.690;2022-11-23T05:40:10;97898.00;;;2.70
71081;BMP180;58740;50.672;18.690;2022-11-23T05:42:38;97898.40;;;2.70
71081;BMP180;58740;50.672;18.690;2022-11-23T05:45:07;97908.20;;;2.70
71081;BMP180;58740;50.672;18.690;2022-11-23T05:47:38;97904.20;;;2.60
71081;BMP180;58740;50.672;18.690;2022-11-23T05:50:07;97909.20;;;2.60
71081;BMP180;58740;50.672;18.690;2022-11-23T05:52:35;97906.20;;;2.66
71081;BMP180;58740;50.672;18.690;2022-11-23T05:55:03;97909.00;;;2.70
71081;BMP180;58740;50.672;18.690;2022-11-23T05:57:31;97905.60;;;2.70
71081;BMP180;58740;50.672;18.690;2022-11-23T05:59:58;97911.60;;;2.68
71081;BMP180;58740;50.672;18.690;2022-11-23T06:02:26;97912.60;;;2.60
71081;BMP180;58740;50.672;18.690;2022-11-23T06:04:54;97909.40;;;2.60
71081;BMP180;58740;50.672;18.690;2022-11-23T06:07:21;97908.40;;;2.70
71081;BMP180;58740;50.672;18.690;2022-11-23T06:09:49;97906.80;;;2.70
71081;BMP180;58740;50.672;18.690;2022-11-23T06:12:17;97905.00;;;2.72
71081;BMP180;58740;50.672;18.690;2022-11-23T06:14:45;97905.20;;;2.80
71081;BMP180;58740;50.672;18.690;2022-11-23T06:17:12;97904.80;;;2.76
71081;BMP180;58740;50.672;18.690;2022-11-23T06:19:40;97901.60;;;2.70
71081;BMP180;58740;50.672;18.690;2022-11-23T06:22:08;97905.40;;;2.68
71081;BMP180;58740;50.672;18.690;2022-11-23T06:24:36;97908.40;;;2.60
71081;BMP180;58740;50.672;18.690;2022-11-23T06:27:04;97912.00;;;2.60
71081;BMP180;58740;50.672;18.690;2022-11-23T06:29:31;97915.20;;;2.60
71081;BMP180;58740;50.672;18.690;2022-11-23T06:32:00;97918.40;;;2.58
71081;BMP180;58740;50.672;18.690;2022-11-23T06:34:27;97922.80;;;2.60
71081;BMP180;58740;50.672;18.690;2022-11-23T06:36:55;97923.20;;;2.66
71081;BMP180;58740;50.672;18.690;2022-11-23T06:39:23;97926.60;;;2.70
71081;BMP180;58740;50.672;18.690;2022-11-23T06:41:51;97926.20;;;2.70
71081;BMP180;58740;50.672;18.690;2022-11-23T06:44:19;97926.40;;;2.70
71081;BMP180;58740;50.672;18.690;2022-11-23T06:46:47;97930.60;;;2.70
71081;BMP180;58740;50.672;18.690;2022-11-23T06:49:14;97931.40;;;2.70
71081;BMP180;58740;50.672;18.690;2022-11-23T06:51:44;97937.00;;;2.64
71081;BMP180;58740;50.672;18.690;2022-11-23T06:54:13;97933.60;;;2.64
71081;BMP180;58740;50.672;18.690;2022-11-23T06:56:40;97937.80;;;2.60
71081;BMP180;58740;50.672;18.690;2022-11-23T06:59:08;97944.20;;;2.70
71081;BMP180;58740;50.672;18.690;2022-11-23T07:01:36;97941.00;;;2.70
71081;BMP180;58740;50.672;18.690;2022-11-23T07:04:04;97944.00;;;2.70
71081;BMP180;58740;50.672;18.690;2022-11-23T07:06:32;97945.80;;;2.70
71081;BMP180;58740;50.672;18.690;2022-11-23T07:08:59;97944.00;;;2.70
71081;BMP180;58740;50.672;18.690;2022-11-23T07:11:27;97948.40;;;2.70
71081;BMP180;58740;50.672;18.690;2022-11-23T07:13:55;97951.60;;;2.70
71081;BMP180;58740;50.672;18.690;2022-11-23T07:16:23;97948.80;;;2.70
71081;BMP180;58740;50.672;18.690;2022-11-23T07:18:51;97952.00;;;2.62
71081;BMP180;58740;50.672;18.690;2022-11-23T07:21:18;97960.00;;;2.70
71081;BMP180;58740;50.672;18.690;2022-11-23T07:23:46;97961.80;;;2.70
71081;BMP180;58740;50.672;18.690;2022-11-23T07:26:14;97967.80;;;2.80
71081;BMP180;58740;50.672;18.690;2022-11-23T07:28:42;97973.00;;;2.80
71081;BMP180;58740;50.672;18.690;2022-11-23T07:31:10;97971.40;;;2.88
71081;BMP180;58740;50.672;18.690;2022-11-23T07:33:38;97977.60;;;2.82
71081;BMP180;58740;50.672;18.690;2022-11-23T07:36:06;97976.60;;;2.80
71081;BMP180;58740;50.672;18.690;2022-11-23T07:38:34;97968.60;;;2.80
71081;BMP180;58740;50.672;18.690;2022-11-23T07:41:02;97969.00;;;2.80
71081;BMP180;58740;50.672;18.690;2022-11-23T07:43:30;97961.20;;;2.80
71081;BMP180;58740;50.672;18.690;2022-11-23T07:45:58;97965.00;;;2.80
71081;BMP180;58740;50.672;18.690;2022-11-23T07:48:26;97967.20;;;2.80
71081;BMP180;58740;50.672;18.690;2022-11-23T07:50:59;97973.80;;;2.80
71081;BMP180;58740;50.672;18.690;2022-11-23T07:53:27;97973.20;;;2.80
71081;BMP180;58740;50.672;18.690;2022-11-23T07:55:56;97973.60;;;2.80
71081;BMP180;58740;50.672;18.690;2022-11-23T07:58:25;97975.40;;;2.82
71081;BMP180;58740;50.672;18.690;2022-11-23T08:00:53;97971.20;;;2.90
71081;BMP180;58740;50.672;18.690;2022-11-23T08:03:21;97978.20;;;2.90
71081;BMP180;58740;50.672;18.690;2022-11-23T08:05:57;97982.40;;;2.80
71081;BMP180;58740;50.672;18.690;2022-11-23T08:08:25;97975.40;;;2.80
71081;BMP180;58740;50.672;18.690;2022-11-23T08:10:53;97983.20;;;2.80
71081;BMP180;58740;50.672;18.690;2022-11-23T08:13:21;97982.00;;;2.82
71081;BMP180;58740;50.672;18.690;2022-11-23T08:15:49;97975.80;;;2.90
71081;BMP180;58740;50.672;18.690;2022-11-23T08:18:23;97981.20;;;2.90
71081;BMP180;58740;50.672;18.690;2022-11-23T08:20:51;97982.80;;;2.90
71081;BMP180;58740;50.672;18.690;2022-11-23T08:23:20;97980.40;;;3.00
71081;BMP180;58740;50.672;18.690;2022-11-23T08:25:48;97978.40;;;3.00
71081;BMP180;58740;50.672;18.690;2022-11-23T08:28:15;97975.40;;;3.00
71081;BMP180;58740;50.672;18.690;2022-11-23T08:30:44;97972.60;;;3.00
71081;BMP180;58740;50.672;18.690;2022-11-23T08:33:13;97974.80;;;3.00
71081;BMP180;58740;50.672;18.690;2022-11-23T08:35:42;97977.60;;;3.00
71081;BMP180;58740;50.672;18.690;2022-11-23T08:38:11;97982.80;;;3.08
71081;BMP180;58740;50.672;18.690;2022-11-23T08:40:39;97980.00;;;3.10
71081;BMP180;58740;50.672;18.690;2022-11-23T08:43:07;97982.20;;;3.10
71081;BMP180;58740;50.672;18.690;2022-11-23T08:45:35;97978.80;;;3.10
71081;BMP180;58740;50.672;18.690;2022-11-23T08:48:03;97974.40;;;3.10
71081;BMP180;58740;50.672;18.690;2022-11-23T08:50:32;97964.40;;;3.00
71081;BMP180;58740;50.672;18.690;2022-11-23T08:53:01;97965.60;;;3.00
71081;BMP180;58740;50.672;18.690;2022-11-23T08:55:29;97965.00;;;3.00
71081;BMP180;58740;50.672;18.690;2022-11-23T08:57:57;97961.20;;;3.00
71081;BMP180;58740;50.672;18.690;2022-11-23T09:00:27;97955.40;;;3.00
71081;BMP180;58740;50.672;18.690;2022-11-23T09:02:55;97959.00;;;3.02
71081;BMP180;58740;50.672;18.690;2022-11-23T09:05:27;97957.60;;;3.10
71081;BMP180;58740;50.672;18.690;2022-11-23T09:07:59;97954.00;;;3.10
71081;BMP180;58740;50.672;18.690;2022-11-23T09:10:27;97958.80;;;3.20
71081;BMP180;58740;50.672;18.690;2022-11-23T09:12:57;97958.80;;;3.20
71081;BMP180;58740;50.672;18.690;2022-11-23T09:15:25;97957.80;;;3.20
71081;BMP180;58740;50.672;18.690;2022-11-23T09:17:53;97953.40;;;3.16
71081;BMP180;58740;50.672;18.690;2022-11-23T09:20:21;97949.80;;;3.20
71081;BMP180;58740;50.672;18.690;2022-11-23T09:22:51;97952.40;;;3.20
71081;BMP180;58740;50.672;18.690;2022-11-23T09:25:20;97948.00;;;3.30
71081;BMP180;58740;50.672;18.690;2022-11-23T09:27:48;97946.60;;;3.40
71081;BMP180;58740;50.672;18.690;2022-11-23T09:30:16;97936.60;;;3.40
71081;BMP180;58740;50.672;18.690;2022-11-23T09:32:44;97940.60;;;3.40
71081;BMP180;58740;50.672;18.690;2022-11-23T09:35:12;97939.80;;;3.32
71081;BMP180;58740;50.672;18.690;2022-11-23T09:37:40;97943.20;;;3.32
71081;BMP180;58740;50.672;18.690;2022-11-23T09:40:15;97936.60;;;3.32
71081;BMP180;58740;50.672;18.690;2022-11-23T09:46:02;97925.60;;;3.40
71081;BMP180;58740;50.672;18.690;2022-11-23T09:51:29;97924.40;;;3.50
71081;BMP180;58740;50.672;18.690;2022-11-23T09:56:42;97919.20;;;3.70
71081;BMP180;58740;50.672;18.690;2022-11-23T10:01:57;97920.80;;;3.70
71081;BMP180;58740;50.672;18.690;2022-11-23T10:04:33;97919.40;;;3.70
71081;BMP180;58740;50.672;18.690;2022-11-23T10:15:38;97904.60;;;3.80
71081;BMP180;58740;50.672;18.690;2022-11-23T10:21:54;97886.40;;;3.80
71081;BMP180;58740;50.672;18.690;2022-11-23T10:24:33;97890.00;;;3.80
71081;BMP180;58740;50.672;18.690;2022-11-23T10:27:17;97889.80;;;3.80
71081;BMP180;58740;50.672;18.690;2022-11-23T10:29:47;97891.00;;;3.80
71081;BMP180;58740;50.672;18.690;2022-11-23T10:35:07;97900.00;;;3.86
71081;BMP180;58740;50.672;18.690;2022-11-23T10:37:41;97891.20;;;3.90
71081;BMP180;58740;50.672;18.690;2022-11-23T10:42:56;97886.20;;;3.90
71081;BMP180;58740;50.672;18.690;2022-11-23T10:45:27;97888.00;;;3.90
71081;BMP180;58740;50.672;18.690;2022-11-23T10:47:59;97886.00;;;3.90
71081;BMP180;58740;50.672;18.690;2022-11-23T10:50:34;97877.60;;;3.90
71081;BMP180;58740;50.672;18.690;2022-11-23T10:55:48;97875.20;;;3.90
71081;BMP180;58740;50.672;18.690;2022-11-23T10:58:32;97881.60;;;4.00
71081;BMP180;58740;50.672;18.690;2022-11-23T11:01:06;97878.80;;;4.00
71081;BMP180;58740;50.672;18.690;2022-11-23T11:03:38;97875.60;;;4.08
71081;BMP180;58740;50.672;18.690;2022-11-23T11:06:07;97872.40;;;4.10
71081;BMP180;58740;50.672;18.690;2022-11-23T11:08:54;97867.20;;;4.10
71081;BMP180;58740;50.672;18.690;2022-11-23T11:11:32;97870.00;;;4.10
71081;BMP180;58740;50.672;18.690;2022-11-23T11:16:36;97877.40;;;4.10
71081;BMP180;58740;50.672;18.690;2022-11-23T11:19:29;97866.80;;;4.10
71081;BMP180;58740;50.672;18.690;2022-11-23T11:22:01;97860.40;;;4.10
71081;BMP180;58740;50.672;18.690;2022-11-23T11:24:36;97865.80;;;4.10
71081;BMP180;58740;50.672;18.690;2022-11-23T11:27:14;97868.00;;;4.20
71081;BMP180;58740;50.672;18.690;2022-11-23T11:32:21;97869.20;;;4.20
71081;BMP180;58740;50.672;18.690;2022-11-23T11:35:02;97868.40;;;4.10
71081;BMP180;58740;50.672;18.690;2022-11-23T11:37:38;97860.60;;;4.10
71081;BMP180;58740;50.672;18.690;2022-11-23T11:40:24;97860.60;;;4.10
71081;BMP180;58740;50.672;18.690;2022-11-23T11:43:04;97859.60;;;4.10
71081;BMP180;58740;50.672;18.690;2022-11-23T11:45:43;97861.20;;;4.10
71081;BMP180;58740;50.672;18.690;2022-11-23T11:48:45;97858.60;;;4.10
71081;BMP180;58740;50.672;18.690;2022-11-23T11:51:38;97860.40;;;4.10
71081;BMP180;58740;50.672;18.690;2022-11-23T11:54:28;97858.20;;;4.10
71081;BMP180;58740;50.672;18.690;2022-11-23T11:57:12;97856.60;;;4.10
71081;BMP180;58740;50.672;18.690;2022-11-23T11:59:46;97857.20;;;4.20
71081;BMP180;58740;50.672;18.690;2022-11-23T12:02:23;97854.40;;;4.20
71081;BMP180;58740;50.672;18.690;2022-11-23T12:08:10;97859.80;;;4.20
71081;BMP180;58740;50.672;18.690;2022-11-23T12:10:52;97857.60;;;4.20
71081;BMP180;58740;50.672;18.690;2022-11-23T12:13:26;97861.40;;;4.20
71081;BMP180;58740;50.672;18.690;2022-11-23T12:19:05;97861.20;;;4.18
71081;BMP180;58740;50.672;18.690;2022-11-23T12:30:25;97864.20;;;4.20
71081;BMP180;58740;50.672;18.690;2022-11-23T12:36:17;97871.00;;;4.20
71081;BMP180;58740;50.672;18.690;2022-11-23T12:38:54;97868.20;;;4.14
71081;BMP180;58740;50.672;18.690;2022-11-23T12:44:40;97869.80;;;4.10
71081;BMP180;58740;50.672;18.690;2022-11-23T12:50:46;97880.60;;;4.10
71081;BMP180;58740;50.672;18.690;2022-11-23T12:53:50;97882.80;;;4.16
71081;BMP180;58740;50.672;18.690;2022-11-23T12:59:46;97879.80;;;4.20
71081;BMP180;58740;50.672;18.690;2022-11-23T13:05:49;97888.40;;;4.20
71081;BMP180;58740;50.672;18.690;2022-11-23T13:15:02;97891.60;;;4.10
71081;BMP180;58740;50.672;18.690;2022-11-23T13:18:05;97897.80;;;4.10
71081;BMP180;58740;50.672;18.690;2022-11-23T13:23:22;97899.20;;;4.10
71081;BMP180;58740;50.672;18.690;2022-11-23T13:28:41;97899.40;;;4.00
71081;BMP180;58740;50.672;18.690;2022-11-23T13:33:51;97905.60;;;4.00
71081;BMP180;58740;50.672;18.690;2022-11-23T13:40:19;97910.40;;;3.90
71081;BMP180;58740;50.672;18.690;2022-11-23T13:42:50;97914.80;;;4.00
71081;BMP180;58740;50.672;18.690;2022-11-23T13:50:59;97917.60;;;3.92
71081;BMP180;58740;50.672;18.690;2022-11-23T13:53:36;97918.40;;;3.90
71081;BMP180;58740;50.672;18.690;2022-11-23T13:56:40;97922.00;;;3.90
71081;BMP180;58740;50.672;18.690;2022-11-23T14:04:43;97923.60;;;3.90
71081;BMP180;58740;50.672;18.690;2022-11-23T14:10:18;97921.00;;;3.94
71081;BMP180;58740;50.672;18.690;2022-11-23T14:12:59;97918.60;;;3.90
71081;BMP180;58740;50.672;18.690;2022-11-23T14:15:34;97914.20;;;3.90
71081;BMP180;58740;50.672;18.690;2022-11-23T14:21:39;97912.40;;;3.90
71081;BMP180;58740;50.672;18.690;2022-11-23T14:36:56;97918.00;;;3.90
71081;BMP180;58740;50.672;18.690;2022-11-23T14:42:25;97914.80;;;3.80
71081;BMP180;58740;50.672;18.690;2022-11-23T14:44:57;97912.20;;;3.80
71081;BMP180;58740;50.672;18.690;2022-11-23T14:47:30;97910.20;;;3.80
71081;BMP180;58740;50.672;18.690;2022-11-23T14:49:59;97919.00;;;3.70
71081;BMP180;58740;50.672;18.690;2022-11-23T14:52:32;97922.40;;;3.70
71081;BMP180;58740;50.672;18.690;2022-11-23T14:55:05;97917.40;;;3.70
71081;BMP180;58740;50.672;18.690;2022-11-23T14:57:46;97919.60;;;3.70
71081;BMP180;58740;50.672;18.690;2022-11-23T15:00:30;97918.60;;;3.70
71081;BMP180;58740;50.672;18.690;2022-11-23T15:03:08;97918.80;;;3.70
71081;BMP180;58740;50.672;18.690;2022-11-23T15:06:16;97933.40;;;3.70
71081;BMP180;58740;50.672;18.690;2022-11-23T15:08:56;97936.60;;;3.60
71081;BMP180;58740;50.672;18.690;2022-11-23T15:11:30;97935.00;;;3.60
71081;BMP180;58740;50.672;18.690;2022-11-23T15:13:59;97939.40;;;3.58
71081;BMP180;58740;50.672;18.690;2022-11-23T15:16:39;97934.40;;;3.50
71081;BMP180;58740;50.672;18.690;2022-11-23T15:19:27;97938.00;;;3.46
71081;BMP180;58740;50.672;18.690;2022-11-23T15:21:56;97941.80;;;3.50
71081;BMP180;58740;50.672;18.690;2022-11-23T15:24:26;97938.60;;;3.50
71081;BMP180;58740;50.672;18.690;2022-11-23T15:27:04;97939.40;;;3.50
71081;BMP180;58740;50.672;18.690;2022-11-23T15:29:39;97940.40;;;3.50
71081;BMP180;58740;50.672;18.690;2022-11-23T15:35:05;97947.00;;;3.58
71081;BMP180;58740;50.672;18.690;2022-11-23T15:37:48;97954.60;;;3.60
71081;BMP180;58740;50.672;18.690;2022-11-23T15:40:18;97953.40;;;3.60
71081;BMP180;58740;50.672;18.690;2022-11-23T15:42:48;97957.60;;;3.60
71081;BMP180;58740;50.672;18.690;2022-11-23T15:48:31;97955.00;;;3.60
71081;BMP180;58740;50.672;18.690;2022-11-23T15:51:03;97962.00;;;3.64
71081;BMP180;58740;50.672;18.690;2022-11-23T15:53:47;97960.60;;;3.70
71081;BMP180;58740;50.672;18.690;2022-11-23T15:56:34;97967.40;;;3.70
71081;BMP180;58740;50.672;18.690;2022-11-23T16:02:05;97962.80;;;3.70
71081;BMP180;58740;50.672;18.690;2022-11-23T16:04:42;97957.00;;;3.62
71081;BMP180;58740;50.672;18.690;2022-11-23T16:07:22;97954.20;;;3.60
71081;BMP180;58740;50.672;18.690;2022-11-23T16:10:18;97949.20;;;3.60
71081;BMP180;58740;50.672;18.690;2022-11-23T16:12:53;97949.40;;;3.52
71081;BMP180;58740;50.672;18.690;2022-11-23T16:18:25;97955.00;;;3.50
71081;BMP180;58740;50.672;18.690;2022-11-23T16:21:03;97954.00;;;3.50
71081;BMP180;58740;50.672;18.690;2022-11-23T16:23:50;97953.20;;;3.50
71081;BMP180;58740;50.672;18.690;2022-11-23T16:26:30;97957.00;;;3.50
71081;BMP180;58740;50.672;18.690;2022-11-23T16:28:59;97947.20;;;3.50
71081;BMP180;58740;50.672;18.690;2022-11-23T16:31:36;97952.00;;;3.42
71081;BMP180;58740;50.672;18.690;2022-11-23T16:34:18;97958.80;;;3.44
71081;BMP180;58740;50.672;18.690;2022-11-23T16:36:46;97960.00;;;3.40
71081;BMP180;58740;50.672;18.690;2022-11-23T16:39:14;97959.60;;;3.40
71081;BMP180;58740;50.672;18.690;2022-11-23T16:41:41;97960.60;;;3.40
71081;BMP180;58740;50.672;18.690;2022-11-23T16:44:09;97966.40;;;3.40
71081;BMP180;58740;50.672;18.690;2022-11-23T16:46:37;97968.60;;;3.40
71081;BMP180;58740;50.672;18.690;2022-11-23T16:49:17;97976.00;;;3.40
71081;BMP180;58740;50.672;18.690;2022-11-23T16:51:47;97970.40;;;3.50
71081;BMP180;58740;50.672;18.690;2022-11-23T16:54:24;97977.20;;;3.50